Terminal Aerodrome Forecast
Issued by NWS

Home | Current Version | Previous Version | Text Only | Print | Product List | Glossary On
Versions: 1 2 3 4 5 6 7 8 9 10 11 12 13
000
FTUS42 TJSJ 212000 AAA
TAFKPK
TAF AMD
TKPK 212009Z 2120/2218 04014KT P6SM VCSH SCT016 SCT030
      TEMPO 2120/2121 02013KT BKN018
     FM212300 07011KT P6SM SCT018
      AMD NOT SKED 2202/2211=

USA.gov is the U.S. government's official web portal to all federal, state and local government web resources and services.